Date,TemperatureHighF,TemperatureAvgF,TemperatureLowF,DewpointHighF,DewpointAvgF,DewpointLowF,HumidityHigh,HumidityAvg,HumidityLow,PressureMaxIn,PressureMinIn,WindSpeedMaxMPH,WindSpeedAvgMPH,GustSpeedMaxMPH,PrecipitationSumIn
2013-1-1,48,46,43,46,40,30,96,82,54,28.91,25.99,5,0,6,0.46
2013-1-2,53,48,45,47,43,41,96,84,66,0.00,40.00,7,0,7,0.07
2013-1-3,48,43,35,43,38,26,94,84,66,26.59,40.00,6,0,9,0.00
2013-1-4,54,40,32,33,26,22,75,58,39,28.08,25.99,5,0,16,0.00
2013-1-5,48,39,27,35,26,21,82,60,42,27.91,26.01,5,0,10,0.00
2013-1-6,59,46,37,45,37,29,88,74,55,31.74,27.03,12,1,12,0.00
2013-1-7,56,41,32,34,30,27,87,66,39,30.61,27.04,6,1,8,0.00
2013-1-8,52,40,28,40,33,26,95,78,58,29.53,28.15,0,0,5,0.00
2013-1-9,59,53,45,53,48,40,93,84,78,29.53,27.34,3,0,3,0.00
2013-1-10,68,56,47,56,51,46,96,83,62,0.00,40.00,13,0,13,0.04
2013-1-11,55,51,51,52,50,49,96,95,89,0.00,40.00,9,0,9,0.70
2013-1-12,73,60,51,67,58,50,98,91,67,0.00,40.00,6,0,10,0.03
2013-1-13,66,59,53,62,58,52,99,94,86,0.00,40.00,10,0,11,0.00
2013-1-14,64,61,59,64,60,58,98,97,96,29.53,29.53,11,0,11,0.52
2013-1-15,57,52,46,55,51,45,97,96,92,29.53,29.53,2,1,11,3.10
2013-1-16,52,48,45,51,47,44,97,97,96,29.53,29.53,0,0,4,1.71
2013-1-17,52,48,39,51,47,33,97,95,82,29.53,26.00,13,1,20,1.99
2013-1-18,55,41,32,34,29,25,84,63,35,31.62,27.26,14,0,14,0.00
2013-1-19,56,40,26,36,29,24,94,68,36,28.07,27.45,12,1,12,0.00
2013-1-20,68,47,30,42,33,27,91,62,36,28.62,27.53,7,0,7,0.00
2013-1-21,62,45,32,38,28,19,90,56,28,26.61,40.00,18,1,18,0.00
2013-1-22,44,35,28,21,14,8,63,43,28,28.19,27.09,11,1,11,0.00
2013-1-23,53,38,24,31,20,8,70,50,39,28.56,26.00,14,1,14,0.00
2013-1-24,48,39,27,34,22,8,92,53,29,31.71,26.00,16,1,17,0.00
2013-1-25,29,27,23,28,18,9,93,73,45,28.37,28.37,6,0,7,0.00
2013-1-26,54,37,25,36,30,24,100,76,44,31.83,31.56,3,0,6,0.05
2013-1-27,47,38,29,35,31,25,92,77,59,31.56,26.01,7,0,9,0.00
2013-1-28,53,44,40,46,38,32,90,78,71,31.45,25.99,5,0,7,0.00
2013-1-29,69,54,38,60,50,37,97,86,70,26.17,26.05,12,1,15,0.02
2013-1-30,67,61,46,63,58,44,95,90,83,0.00,40.00,18,3,21,1.13
2013-1-31,49,42,36,44,27,22,92,56,36,0.00,40.00,25,4,26,0.01
2013-2-1,42,36,27,29,18,10,75,49,32,0.00,40.00,21,1,21,0.00
2013-2-2,44,32,21,35,22,13,94,69,31,26.10,40.00,12,1,14,0.05
2013-2-3,53,40,30,38,30,24,94,70,37,26.15,25.99,16,2,24,0.00
2013-2-4,52,38,29,30,25,21,74,60,38,0.00,40.00,12,1,12,0.00
2013-2-11,57,51,46,55,50,45,97,95,92,29.53,29.53,4,0,12,0.09
2013-2-12,59,50,43,47,37,29,95,65,36,29.53,29.53,2,0,11,0.05
2013-2-13,52,45,39,47,41,32,95,87,63,29.53,29.53,5,1,15,0.00
2013-2-14,54,42,34,39,33,29,88,71,50,29.53,29.53,4,1,11,0.00
2013-2-15,63,46,29,43,34,28,95,68,37,29.53,29.53,6,1,20,0.00
2013-2-16,42,36,28,32,25,14,91,65,45,29.53,29.53,2,0,15,0.00
2013-2-17,49,35,21,19,14,8,70,42,22,29.53,25.99,9,1,18,0.00
2013-2-18,57,39,22,31,23,14,83,54,34,0.00,40.00,11,1,13,0.00
2013-2-19,54,42,35,45,33,20,94,72,37,0.00,40.00,14,1,14,0.22
2013-2-20,54,40,25,28,20,14,80,48,29,0.00,40.00,7,0,7,0.00
2013-2-21,61,44,27,40,24,15,91,49,24,0.00,40.00,6,0,6,0.17
2013-2-22,42,40,38,40,38,35,95,93,89,0.00,40.00,11,0,11,0.35
2013-2-23,46,42,38,44,40,37,96,95,93,0.00,40.00,4,0,4,0.37
2013-2-24,67,50,35,47,38,29,97,67,34,0.00,40.00,6,1,9,0.00
2013-2-25,50,43,37,33,30,26,83,60,46,0.00,40.00,15,2,15,0.00
2013-2-26,42,39,34,41,37,32,95,93,83,0.00,40.00,10,1,15,1.17
2013-2-27,58,46,33,42,37,31,95,73,51,0.00,40.00,14,2,15,0.00
2013-2-28,52,42,32,35,29,24,81,59,43,0.00,40.00,22,2,22,0.00
2013-3-1,32,30,28,26,25,24,88,82,72,0.00,40.00,1,0,1,0.00
2013-3-2,46,40,32,32,28,22,80,64,47,29.53,29.53,2,1,18,0.00
2013-3-3,46,38,28,24,21,18,68,52,40,29.53,27.03,9,1,14,0.00
2013-4-24,72,67,60,60,58,57,92,74,60,29.97,29.97,15,2,15,0.00
2013-4-25,75,62,47,58,43,29,94,54,29,29.97,29.97,8,0,0,0.00
2013-4-26,73,60,43,48,40,33,81,50,33,29.97,29.97,8,0,12,0.00
2013-4-27,58,55,52,55,52,45,95,89,67,29.97,29.97,4,0,0,0.53
2013-4-28,54,53,50,53,52,49,97,96,95,29.97,29.97,5,0,0,1.87
2013-4-29,74,62,53,64,57,52,98,85,57,29.97,29.97,7,0,0,0.08
2013-4-30,76,64,51,66,58,50,97,83,59,29.97,29.97,10,0,12,0.00
2013-5-1,68,62,56,59,56,53,89,81,68,29.97,29.97,12,1,12,0.00
2013-5-2,68,60,56,61,56,54,94,87,75,29.97,29.97,12,1,15,0.02
2013-5-3,66,58,54,58,55,52,95,87,74,29.97,29.97,11,1,15,0.06
2013-5-4,59,54,51,53,49,44,94,85,71,29.97,29.97,16,2,16,0.69
2013-5-5,54,52,49,53,50,47,96,95,93,29.97,29.97,15,2,22,2.01
2013-5-6,67,57,46,57,52,44,97,83,57,29.97,29.97,9,1,12,0.03
2013-5-7,63,49,42,56,47,41,96,92,73,29.97,29.97,0,0,0,0.03
2013-5-8,74,60,48,62,54,46,97,84,58,29.97,29.97,6,0,0,0.00
2013-5-9,60,60,59,58,58,57,94,93,93,29.97,29.97,0,0,0,0.23
2013-5-10,79,67,54,67,60,53,97,80,58,29.97,29.97,12,1,17,0.01
2013-5-11,77,67,58,66,61,56,96,83,64,29.97,29.97,12,1,14,0.09
2013-5-12,74,62,48,58,49,35,96,66,36,29.97,29.97,11,0,0,0.01
2013-5-13,72,59,48,47,37,32,59,44,28,29.97,29.97,7,0,0,0.00
2013-5-14,74,60,40,55,45,35,91,60,39,29.97,29.97,10,1,0,0.00
2013-5-15,89,71,52,68,59,50,95,69,45,29.97,29.97,10,1,12,0.00
2013-5-16,81,69,56,67,60,54,95,76,55,29.97,29.97,5,0,0,0.00
2013-5-17,85,71,58,68,62,56,97,75,48,29.97,29.97,7,0,0,0.00
2013-5-18,74,67,61,69,64,59,97,92,80,29.97,29.97,4,0,0,1.35
2013-5-19,75,69,64,69,66,62,97,91,80,29.97,29.97,5,0,0,0.20
2013-5-20,84,71,61,72,66,60,98,86,62,29.97,29.97,6,0,0,0.00
2013-5-21,88,74,62,74,67,61,97,81,54,29.97,29.97,5,0,0,0.00
2013-5-22,84,71,63,73,66,60,96,85,64,29.97,29.97,16,0,16,1.36
2013-5-23,83,70,62,71,64,58,97,83,53,29.97,29.97,9,0,0,0.10
2013-5-24,73,65,53,59,50,42,95,62,34,29.97,29.97,12,1,14,0.00
2013-5-25,77,64,49,56,46,39,75,54,33,29.97,29.97,7,1,0,0.00
2013-5-26,76,63,53,57,51,46,89,68,45,29.97,29.97,6,0,0,0.00
2013-5-27,83,68,52,64,58,50,96,72,47,29.97,29.97,6,0,0,0.00
2013-5-28,85,71,59,67,62,57,96,75,51,29.97,29.97,7,0,0,0.00
2013-5-29,85,72,60,70,63,58,96,76,51,29.97,29.97,5,0,0,0.00
2013-5-30,85,72,60,69,64,59,97,78,51,29.97,29.97,6,0,0,0.00
2013-5-31,86,74,64,70,65,62,96,78,53,29.97,29.97,6,0,0,0.00
2013-6-1,85,74,66,70,66,64,95,79,56,29.97,29.97,7,1,0,0.03
2013-6-2,80,70,67,74,68,65,96,91,75,29.97,29.97,7,0,0,1.37
2013-6-3,81,72,66,74,68,65,98,90,73,29.97,29.97,4,0,0,0.14
2013-6-4,83,73,61,71,66,59,97,81,58,29.97,29.97,10,0,0,0.00
2013-6-5,82,73,68,73,68,65,96,85,70,29.97,29.97,9,0,0,0.65
2013-6-6,77,70,64,71,68,63,97,93,79,29.97,29.97,4,0,0,0.39
2013-6-7,84,70,66,75,68,64,97,92,71,29.97,29.97,7,0,0,0.74
2013-6-8,84,73,63,72,68,62,97,83,63,29.97,29.97,7,0,0,0.01
2013-6-9,84,72,65,75,68,64,97,90,68,29.97,29.97,10,0,17,0.77
2013-6-10,78,71,68,72,67,-100,97,92,76,29.97,29.97,12,1,22,0.87
2013-6-11,90,78,69,73,69,66,97,78,47,29.97,29.97,5,0,0,0.01
2013-6-12,90,83,75,79,76,73,93,80,66,29.97,29.97,4,0,0,0.01
2013-6-13,92,77,67,75,70,65,97,81,50,29.97,29.97,14,1,19,0.01
2013-6-14,84,74,61,65,60,56,93,63,43,29.97,29.97,9,1,15,0.00
2013-6-15,84,71,57,67,61,54,96,72,50,29.97,29.97,7,0,0,0.00
2013-6-16,86,73,59,70,65,58,97,78,54,29.97,29.97,11,1,0,0.00
2013-6-17,81,73,67,74,70,66,95,88,73,29.97,29.97,9,0,0,1.72
2013-6-18,82,72,66,75,70,64,97,91,74,29.97,29.97,10,1,14,0.58
2013-6-19,83,74,66,70,66,63,92,78,61,29.97,29.97,6,0,0,0.00
2013-6-20,83,72,63,72,66,62,97,82,60,29.97,29.97,7,0,0,0.00
2013-6-21,84,73,62,70,65,60,97,77,54,29.97,29.97,5,0,0,0.00
2013-6-22,86,74,60,69,64,59,97,74,45,29.97,29.97,8,0,0,0.00
2013-6-23,88,74,64,75,68,63,97,83,57,29.97,29.97,7,0,13,0.33
2013-6-24,87,77,69,76,71,68,97,85,63,29.97,29.97,9,0,0,0.01
2013-6-25,88,75,68,76,70,66,97,86,59,29.97,29.97,9,0,0,0.14
2013-6-26,89,74,68,77,70,67,97,89,64,29.97,29.97,12,0,19,0.21
2013-6-27,89,77,68,78,72,67,98,87,65,29.97,29.97,11,1,13,0.07
2013-6-28,92,79,68,80,71,66,96,78,47,29.97,29.97,10,0,0,0.00
2013-6-29,88,76,65,74,68,64,97,78,52,29.97,29.97,6,0,12,0.00
2013-6-30,86,75,68,74,70,66,97,84,59,29.97,29.97,9,0,0,0.00
2013-7-1,84,74,68,73,69,67,97,86,67,29.97,29.97,12,0,12,0.52
2013-7-2,82,73,68,76,70,66,97,91,76,29.97,29.97,7,0,0,0.19
2013-7-3,82,72,65,75,70,64,97,92,74,29.97,29.97,9,0,16,1.14
2013-7-4,77,70,66,74,68,64,98,96,89,29.97,29.97,6,0,0,2.24
2013-7-5,87,73,68,75,68,-100,98,91,63,29.97,29.97,13,0,18,0.40
2013-7-6,86,75,69,76,72,68,98,91,64,29.97,29.97,7,0,0,0.66
2013-7-7,82,75,71,76,72,69,97,90,75,29.97,29.97,7,0,0,0.27
2013-7-8,88,78,70,78,72,69,98,85,64,29.97,29.97,6,0,0,0.00
2013-7-9,91,78,69,79,73,68,97,85,64,29.97,29.97,6,0,0,0.52
2013-7-10,86,76,70,78,73,69,98,90,74,29.97,29.97,6,0,0,0.13
2013-7-11,82,75,70,76,72,69,98,92,80,29.97,29.97,3,0,0,0.01
2013-7-12,87,75,66,77,71,64,97,88,65,29.97,29.97,7,0,13,0.68
2013-7-13,79,72,65,72,68,64,97,91,78,29.97,29.97,8,0,0,0.01
2013-7-14,78,73,69,74,71,67,97,93,82,29.97,29.97,12,0,14,0.54
2013-7-15,78,72,69,74,70,68,98,95,82,29.97,29.97,4,0,0,0.00
2013-7-16,92,84,73,78,74,71,94,74,56,29.97,29.97,2,0,0,0.00
2013-7-17,94,78,70,80,72,68,97,83,57,29.97,29.97,9,0,0,0.15
2013-7-18,90,79,68,79,72,67,98,82,57,29.97,29.97,4,0,0,0.00
2013-7-19,91,79,69,78,73,68,98,82,58,29.97,29.97,6,0,0,0.00
2013-7-20,88,76,72,79,73,69,97,91,71,29.97,29.97,6,0,0,0.33
2013-7-21,88,76,71,79,73,70,98,89,69,29.97,29.97,4,0,0,0.29
2013-7-22,86,76,70,77,72,69,97,88,70,29.97,29.97,8,0,0,0.11
2013-7-23,90,78,67,77,72,66,98,84,58,29.97,29.97,7,0,0,0.00
2013-7-24,91,76,68,77,70,66,97,84,51,29.97,29.97,7,0,0,0.14
2013-7-25,88,75,67,75,69,65,97,84,58,29.97,29.97,7,0,0,0.00
2013-7-26,86,74,65,75,70,64,97,86,66,29.97,29.97,7,0,0,0.00
2013-7-27,82,74,69,76,71,67,98,90,75,29.97,29.97,7,0,12,3.27
2013-7-28,87,75,68,75,70,67,98,85,61,29.97,29.97,6,0,0,0.00
2013-7-29,88,75,64,74,67,62,94,78,53,29.97,29.97,5,0,0,0.00
2013-7-30,86,74,62,75,68,59,95,80,65,29.97,29.97,6,0,0,0.00
2013-7-31,79,73,70,73,70,68,97,93,80,29.97,29.97,3,0,0,0.33
2013-8-1,83,74,71,76,72,70,97,93,79,29.97,29.97,3,0,0,1.05
2013-8-2,87,73,66,74,69,64,98,87,59,29.97,29.97,5,0,0,0.00
2013-8-3,88,82,72,75,72,70,94,75,59,29.97,29.97,5,0,0,0.00
2013-8-4,89,77,68,75,69,63,96,79,58,29.97,29.97,5,0,0,0.00
2013-8-5,87,75,66,75,69,63,96,82,63,29.97,29.97,4,0,0,0.12
2013-8-6,84,75,70,77,72,69,97,90,73,29.97,29.97,6,0,0,1.11
2013-8-7,77,73,71,74,72,70,98,95,91,29.97,29.97,5,0,0,0.47
2013-8-8,83,76,70,77,72,69,98,90,75,29.97,29.97,9,0,0,0.00
2013-8-9,90,76,71,81,73,70,98,91,65,29.97,29.97,7,0,0,0.23
2013-8-10,89,76,70,80,73,67,98,90,64,29.97,29.97,19,0,19,0.88
2013-8-11,91,74,67,81,71,66,98,90,64,29.97,29.97,4,0,0,0.05
2013-8-12,83,83,83,72,72,72,70,70,70,29.97,29.97,0,0,0,0.00
2013-8-13,84,77,70,77,71,68,93,83,75,29.97,29.97,5,0,0,0.01
2013-8-14,84,73,69,72,68,65,94,84,65,29.97,29.97,5,0,0,0.00
2013-8-15,73,67,61,66,61,59,93,82,67,29.97,29.97,10,0,12,0.00
2013-8-16,75,66,61,65,61,58,94,85,67,29.97,29.97,6,0,0,0.00
2013-8-17,70,65,62,64,62,60,96,89,75,29.97,29.97,5,0,0,0.12
2013-8-18,76,68,64,70,66,63,97,93,81,29.97,29.97,3,0,0,0.28
2013-8-19,78,70,67,72,68,66,98,93,78,29.97,29.97,4,0,0,1.14
2013-8-20,82,72,64,74,69,64,98,90,74,29.97,29.97,6,0,0,0.01
2013-8-21,82,73,69,74,70,67,98,91,75,29.97,29.97,4,0,0,0.24
2013-8-22,88,75,66,76,70,65,98,87,61,29.97,29.97,4,0,0,0.00
2013-8-23,91,74,65,77,69,64,98,85,51,29.97,29.97,7,0,16,0.11
2013-8-24,82,72,61,70,65,59,97,82,53,29.97,29.97,9,0,13,0.01
2013-8-25,82,68,57,68,61,56,98,80,52,29.97,29.97,6,0,0,0.00
2013-8-26,85,70,57,72,64,56,97,81,56,31.56,29.97,4,0,0,0.00
2013-8-27,90,74,61,76,68,60,98,82,52,31.56,31.56,5,0,0,0.00
2013-8-28,91,77,67,76,71,66,98,83,57,31.56,31.56,5,0,0,0.00
2013-8-29,94,79,68,78,72,67,97,81,52,31.56,31.56,5,0,0,0.00
2013-8-30,85,76,72,76,72,70,95,88,67,31.56,30.77,7,0,0,0.13
2013-8-31,89,75,70,78,72,68,98,91,65,30.77,30.77,5,0,0,0.52
2013-9-1,87,74,67,78,71,66,98,92,71,30.77,30.77,11,0,14,0.64
2013-9-2,85,76,68,77,71,67,98,88,71,30.77,30.77,5,0,0,0.00
2013-9-3,89,74,66,78,69,64,97,84,56,30.77,30.77,4,0,0,0.06
2013-9-4,88,75,64,74,68,63,97,81,57,30.77,30.77,4,0,0,0.00
2013-9-5,90,75,64,75,68,62,97,81,53,30.77,30.77,4,0,0,0.00
2013-9-6,84,72,61,69,64,59,96,78,55,30.77,27.63,9,0,0,0.00
2013-9-7,84,72,61,72,65,60,97,82,60,27.63,27.63,4,0,0,0.00
2013-9-8,87,74,63,74,68,62,98,84,58,27.63,27.63,4,0,0,0.00
2013-9-9,89,75,65,75,69,64,98,83,58,27.63,27.63,5,0,0,0.01
2013-9-10,90,75,64,75,69,63,98,83,56,27.63,27.63,3,0,0,0.00
2013-9-11,90,76,64,75,70,63,98,83,59,27.63,27.63,4,0,0,0.00
2013-9-12,90,74,67,75,70,66,98,88,56,29.97,27.63,9,0,0,0.21
2013-9-13,86,72,63,69,63,54,97,76,47,29.97,29.97,5,0,0,0.00
2013-9-14,79,66,56,63,56,52,93,72,50,29.97,29.97,12,0,12,0.00
2013-9-15,82,67,56,69,62,55,97,84,62,29.97,29.97,5,0,0,0.00
2013-9-16,84,67,62,72,64,60,98,90,56,29.97,29.97,4,0,0,0.00
2013-9-18,72,68,60,63,61,56,93,79,67,29.97,29.97,5,0,0,0.00
2013-9-19,82,69,57,70,64,56,97,85,63,29.97,29.97,5,0,0,0.00
2013-9-20,86,72,61,71,66,60,98,82,56,29.97,29.97,7,0,0,0.00
2013-9-21,70,66,63,69,65,61,98,95,93,29.97,29.97,6,0,0,1.33
2013-9-22,81,67,55,65,60,54,98,81,49,29.97,29.97,5,0,0,0.00
2013-9-23,78,66,59,65,60,57,96,82,56,29.97,29.97,6,0,0,0.00
2013-9-24,76,66,56,66,61,54,97,87,66,29.97,29.97,3,0,0,0.00
2013-9-25,66,63,61,64,62,60,97,95,90,29.97,29.97,5,0,0,0.75
2013-9-26,77,65,56,65,60,54,98,85,59,30.10,29.97,4,0,0,0.01
2013-9-27,78,64,52,64,58,51,97,82,57,30.79,28.52,6,0,0,0.01
2013-9-28,73,63,56,62,57,54,96,83,61,28.52,28.52,9,0,0,0.00
2013-9-29,76,62,52,62,56,50,97,85,58,28.52,28.52,4,0,0,0.00
2013-9-30,76,64,53,65,58,52,97,85,59,28.52,28.52,3,0,0,0.00
2013-10-1,82,66,54,67,59,52,98,81,48,30.80,28.52,3,0,0,0.00
2013-10-2,84,68,57,69,62,55,98,82,53,30.80,27.64,4,0,0,0.01
2013-10-3,84,70,58,69,63,57,97,81,49,30.79,27.64,6,0,0,0.00
2013-10-4,87,70,58,70,64,57,98,82,51,31.50,28.50,7,0,0,0.00
2013-10-5,88,72,60,72,65,59,98,82,52,31.50,31.50,3,0,0,0.01
2013-10-6,84,70,59,71,64,58,98,85,57,31.50,31.50,7,0,0,0.00
2013-10-7,72,66,57,69,62,52,98,87,66,31.50,31.50,8,0,0,1.22
2013-10-8,71,62,56,58,53,47,85,74,58,31.50,31.50,16,0,16,0.00
2013-10-9,74,59,47,55,49,45,96,74,42,31.50,31.50,10,0,12,0.00
2013-10-10,79,61,45,62,53,44,97,76,45,31.50,31.50,6,0,0,0.00
2013-10-11,81,66,53,63,56,51,96,72,36,31.50,31.50,7,0,12,0.00
2013-10-12,80,65,54,67,60,52,97,84,55,31.50,31.50,2,0,0,0.00
2013-10-13,76,67,62,67,63,60,96,89,70,31.50,31.50,5,0,0,0.07
2013-10-14,73,65,61,65,62,59,97,90,75,31.50,31.50,9,0,0,0.00
2013-10-15,70,61,54,61,57,52,96,88,72,31.50,31.50,5,0,0,0.00
2013-10-16,72,61,51,62,57,50,98,86,67,31.50,31.50,5,0,0,0.00
2013-10-17,66,63,60,64,62,59,97,96,90,31.50,31.50,5,0,0,0.08
2013-10-18,74,62,52,63,56,50,97,84,60,31.50,31.50,5,0,0,0.00
2013-10-19,65,59,50,60,57,48,97,92,77,31.50,31.50,5,0,0,0.00
2013-10-20,70,55,46,52,47,42,96,78,49,31.50,27.66,4,0,0,0.01
2013-10-21,70,54,42,58,50,41,97,85,60,27.66,27.66,9,0,0,0.00
2013-10-22,71,59,52,60,54,50,97,85,60,27.66,27.66,6,0,0,0.01
2013-10-23,66,52,42,51,41,31,97,70,38,27.67,27.66,13,1,15,0.00
2013-10-24,62,47,33,47,37,30,94,71,49,27.67,27.67,11,0,12,0.00
2013-10-25,55,44,33,39,32,28,90,67,40,27.69,27.67,14,1,17,0.00
2013-10-26,58,42,28,40,34,26,95,76,45,27.69,27.69,10,0,14,0.00
2013-10-27,71,53,37,54,46,35,97,80,52,27.69,27.69,6,0,0,0.00
2013-10-28,72,58,49,58,53,48,97,85,58,27.69,27.69,6,0,0,0.00
2013-10-29,75,59,48,58,53,46,97,82,51,27.69,27.69,5,0,0,0.00
2013-10-30,79,63,52,62,56,51,97,82,52,27.69,27.64,7,0,0,0.00
2013-10-31,69,61,55,62,57,54,100,89,72,29.97,27.64,6,0,0,0.00
2013-11-1,73,64,57,64,61,55,97,91,71,29.97,29.97,8,0,0,0.32
2013-11-2,70,55,44,56,46,37,100,74,39,29.97,29.97,13,0,14,0.02
2013-11-3,65,50,40,44,39,36,93,71,35,29.97,28.54,9,0,13,0.00
2013-11-4,61,47,38,39,37,34,90,69,41,28.54,28.54,13,0,13,0.00
2013-11-5,61,47,34,47,39,32,94,76,48,28.54,28.54,7,0,0,0.00
2013-11-6,71,57,49,57,51,47,95,82,59,28.54,28.54,7,0,0,0.00
2013-11-7,61,52,46,60,48,33,97,88,59,29.97,28.54,7,0,0,0.02
2013-11-8,62,48,36,33,29,25,73,51,25,29.97,29.97,11,1,14,0.00
2013-11-9,61,45,31,40,33,27,90,67,37,29.97,29.97,7,0,0,0.00
2013-11-10,77,56,39,45,38,30,91,58,26,29.97,29.97,6,0,0,0.00
2013-11-11,65,50,38,36,32,28,83,52,31,29.97,29.97,8,0,0,0.00
2013-11-12,65,44,30,47,32,16,91,66,37,29.97,29.97,20,1,25,0.00
2013-11-13,55,37,27,23,19,16,69,49,26,29.97,29.97,12,1,14,0.00
2013-11-14,55,34,24,31,23,20,88,66,32,29.97,29.97,7,0,12,0.00
2013-11-15,57,45,30,47,36,24,94,73,39,29.97,29.97,3,0,0,0.20
2013-11-16,61,54,48,56,51,47,97,93,83,29.97,29.97,4,0,0,0.01
2013-11-17,61,58,54,59,56,53,97,95,89,29.97,29.97,2,0,0,0.48
2013-11-18,74,61,49,63,50,33,98,71,33,29.97,29.97,12,1,15,0.01
2013-11-19,60,50,42,36,31,27,71,50,34,29.97,29.97,17,1,19,0.00
2013-11-20,54,46,39,35,32,29,70,57,42,29.97,29.97,12,1,15,0.00
2013-11-21,51,48,45,48,42,33,95,79,60,29.97,29.97,10,0,0,0.07
2013-11-22,59,54,49,58,53,48,97,96,95,29.97,29.97,6,0,0,0.12
2013-11-23,58,53,40,56,44,24,97,75,44,29.97,29.97,9,0,15,0.00
2013-11-24,43,34,26,26,16,12,61,48,30,29.97,29.97,20,1,20,0.01
2013-11-25,43,33,22,25,16,12,78,51,32,29.97,29.97,4,0,0,0.00
2013-11-26,46,40,33,45,38,23,97,93,55,29.97,29.97,4,0,0,3.24
2013-11-27,46,38,28,46,30,18,97,73,48,30.86,28.57,18,1,22,0.07
2013-11-28,50,34,24,29,22,17,86,64,39,28.57,28.57,10,0,0,0.00
2013-11-29,58,39,26,36,27,24,93,66,33,28.57,28.57,9,0,0,0.00
2013-11-30,50,38,29,30,26,24,81,63,42,28.57,28.57,6,0,0,0.00
2013-12-1,59,41,29,41,32,25,91,74,49,28.57,28.57,5,0,0,0.00
2013-12-2,61,45,32,45,39,30,96,81,49,28.57,28.57,6,0,0,0.00
2013-12-3,58,52,47,52,49,45,96,91,79,28.57,28.57,5,0,0,0.04
2013-12-4,58,55,52,57,54,51,97,97,96,28.57,28.57,2,0,0,0.03
2013-12-5,67,62,58,67,62,57,98,98,97,28.57,28.57,11,0,14,0.53
2013-12-6,72,68,65,67,65,64,98,92,81,28.57,28.57,14,3,20,0.32
2013-12-7,65,56,48,64,50,41,96,80,59,28.57,28.57,19,1,19,0.05
2013-12-8,48,40,36,42,38,34,95,92,77,28.57,28.57,9,1,0,0.11
2013-12-9,46,40,35,45,39,34,97,96,95,28.57,28.57,3,0,0,1.05
2013-12-10,55,45,32,51,39,25,98,81,48,30.76,27.68,12,1,13,0.20
2013-12-11,55,38,25,33,27,22,92,70,39,30.76,27.70,7,0,0,0.00
2013-12-12,51,39,30,26,21,14,82,51,32,27.70,27.70,7,0,12,0.00
2013-12-13,53,38,24,31,24,16,85,60,32,27.70,27.70,6,0,0,0.00
2013-12-14,44,41,38,42,37,30,96,87,67,27.70,27.70,7,0,0,1.03
2013-12-15,53,43,33,43,36,28,97,78,52,27.70,27.70,11,1,0,0.01
2013-12-16,61,43,28,38,31,25,100,67,39,31.62,27.70,9,0,0,0.00
2013-12-17,65,48,31,42,33,23,90,61,33,31.62,31.62,17,1,21,0.00
2013-12-18,56,43,32,28,24,21,72,49,30,32.35,30.83,7,0,0,0.00
2013-12-19,62,43,28,33,26,23,90,56,27,30.83,30.83,10,0,15,0.00
2013-12-20,62,47,36,47,38,28,89,73,53,30.83,30.83,12,0,12,0.00
2013-12-21,62,55,47,61,53,44,98,93,87,30.83,30.83,3,0,0,0.14
2013-12-22,68,62,59,65,61,58,98,96,89,30.83,30.83,11,0,16,1.56
2013-12-23,59,54,44,58,30,-100,98,89,75,30.83,30.83,6,0,0,0.41
2013-12-24,45,38,28,33,-16,-100,83,66,49,30.83,30.83,15,1,18,0.00
2013-12-25,44,30,21,23,14,-100,89,63,34,30.83,30.83,6,0,0,0.00
2013-12-26,58,38,23,34,22,-100,89,65,35,30.83,30.83,4,0,0,0.00
2013-12-27,56,38,27,35,26,22,91,65,33,30.83,29.97,5,0,0,0.00
2013-12-28,49,36,27,39,31,24,94,82,59,29.97,29.97,2,0,0,0.31
2013-12-29,58,46,41,54,43,38,100,90,76,29.97,29.97,3,0,0,0.78
2013-12-30,54,44,35,45,39,33,96,82,68,29.97,29.97,2,0,0,0.00
2013-12-31,51,41,33,37,28,22,88,64,39,29.97,29.97,9,0,0,0.00
2014-1-1,50,38,30,35,29,23,88,71,48,29.97,29.97,5,0,0,0.00
2014-1-2,45,40,28,44,37,15,96,88,57,29.97,29.97,9,0,15,0.15